sensor_id;sensor_type;location;lat;lon;timestamp;pressure;altitude;pressure_sealevel;temperature;humidity
35694;BME280;21812;55.536;37.664;2023-03-01T00:01:14;98976.69;;;-3.42;48.36
35694;BME280;21812;55.536;37.664;2023-03-01T00:03:41;98976.69;;;-3.42;48.42
35694;BME280;21812;55.536;37.664;2023-03-01T00:06:07;98977.16;;;-3.48;48.20
35694;BME280;21812;55.536;37.664;2023-03-01T00:08:33;98979.41;;;-3.43;48.45
35694;BME280;21812;55.536;37.664;2023-03-01T00:11:20;98977.88;;;-3.35;47.95
35694;BME280;21812;55.536;37.664;2023-03-01T00:13:48;98973.69;;;-3.37;48.24
35694;BME280;21812;55.536;37.664;2023-03-01T00:16:25;98964.44;;;-3.30;47.97
35694;BME280;21812;55.536;37.664;2023-03-01T00:18:51;98972.41;;;-3.31;47.85
35694;BME280;21812;55.536;37.664;2023-03-01T00:21:20;98942.53;;;-3.61;48.25
35694;BME280;21812;55.536;37.664;2023-03-01T00:23:47;98963.75;;;-3.66;48.36
35694;BME280;21812;55.536;37.664;2023-03-01T00:26:14;98969.34;;;-3.59;48.54
35694;BME280;21812;55.536;37.664;2023-03-01T00:28:41;98967.91;;;-3.63;48.37
35694;BME280;21812;55.536;37.664;2023-03-01T00:31:09;98966.25;;;-3.64;48.24
35694;BME280;21812;55.536;37.664;2023-03-01T00:33:35;98968.63;;;-3.72;48.73
35694;BME280;21812;55.536;37.664;2023-03-01T00:36:02;98966.94;;;-3.74;48.48
35694;BME280;21812;55.536;37.664;2023-03-01T00:38:28;98965.19;;;-3.73;49.14
35694;BME280;21812;55.536;37.664;2023-03-01T00:40:53;98973.47;;;-3.68;48.67
35694;BME280;21812;55.536;37.664;2023-03-01T00:43:21;98959.59;;;-3.80;48.78
35694;BME280;21812;55.536;37.664;2023-03-01T00:45:46;98966.72;;;-3.82;48.73
35694;BME280;21812;55.536;37.664;2023-03-01T00:48:12;98956.16;;;-3.80;49.15
35694;BME280;21812;55.536;37.664;2023-03-01T00:50:37;98960.19;;;-3.87;48.75
35694;BME280;21812;55.536;37.664;2023-03-01T00:53:03;98968.94;;;-3.88;49.14
35694;BME280;21812;55.536;37.664;2023-03-01T00:55:30;98962.78;;;-3.87;49.32
35694;BME280;21812;55.536;37.664;2023-03-01T00:57:56;98959.09;;;-3.85;49.33
35694;BME280;21812;55.536;37.664;2023-03-01T01:00:21;98959.97;;;-3.84;49.39
35694;BME280;21812;55.536;37.664;2023-03-01T01:02:48;98957.69;;;-3.89;49.31
35694;BME280;21812;55.536;37.664;2023-03-01T01:05:14;98963.38;;;-3.95;49.35
35694;BME280;21812;55.536;37.664;2023-03-01T01:07:40;98966.69;;;-3.93;49.75
35694;BME280;21812;55.536;37.664;2023-03-01T01:10:06;98965.63;;;-3.90;49.47
35694;BME280;21812;55.536;37.664;2023-03-01T01:12:32;98958.88;;;-3.93;49.87
35694;BME280;21812;55.536;37.664;2023-03-01T01:14:58;98964.44;;;-3.98;49.53
35694;BME280;21812;55.536;37.664;2023-03-01T01:17:24;98962.53;;;-4.07;49.60
35694;BME280;21812;55.536;37.664;2023-03-01T01:19:49;98965.94;;;-4.18;49.77
35694;BME280;21812;55.536;37.664;2023-03-01T01:22:15;98962.81;;;-4.23;50.03
35694;BME280;21812;55.536;37.664;2023-03-01T01:24:41;98967.94;;;-4.21;50.19
35694;BME280;21812;55.536;37.664;2023-03-01T01:27:06;98962.25;;;-4.15;50.37
35694;BME280;21812;55.536;37.664;2023-03-01T01:29:32;98962.72;;;-4.21;50.41
35694;BME280;21812;55.536;37.664;2023-03-01T01:31:58;98958.31;;;-4.21;50.16
35694;BME280;21812;55.536;37.664;2023-03-01T01:34:23;98959.19;;;-4.20;50.21
35694;BME280;21812;55.536;37.664;2023-03-01T01:36:51;98957.03;;;-4.15;50.43
35694;BME280;21812;55.536;37.664;2023-03-01T01:39:19;98955.25;;;-4.26;50.13
35694;BME280;21812;55.536;37.664;2023-03-01T01:41:45;98952.53;;;-4.24;50.42
35694;BME280;21812;55.536;37.664;2023-03-01T01:47:05;98959.88;;;-4.29;50.89
35694;BME280;21812;55.536;37.664;2023-03-01T01:49:43;98959.47;;;-4.36;51.31
35694;BME280;21812;55.536;37.664;2023-03-01T01:57:16;98970.28;;;-4.29;51.19
35694;BME280;21812;55.536;37.664;2023-03-01T01:59:47;98960.69;;;-4.29;51.38
35694;BME280;21812;55.536;37.664;2023-03-01T02:02:15;98966.22;;;-4.45;51.61
35694;BME280;21812;55.536;37.664;2023-03-01T02:04:41;98955.53;;;-4.42;51.58
35694;BME280;21812;55.536;37.664;2023-03-01T02:07:16;98919.84;;;-4.64;52.03
35694;BME280;21812;55.536;37.664;2023-03-01T02:09:50;98946.03;;;-4.54;52.29
35694;BME280;21812;55.536;37.664;2023-03-01T02:12:20;98955.25;;;-4.61;52.80
35694;BME280;21812;55.536;37.664;2023-03-01T02:14:46;98957.63;;;-4.58;52.56
35694;BME280;21812;55.536;37.664;2023-03-01T02:17:15;98948.25;;;-4.61;52.57
35694;BME280;21812;55.536;37.664;2023-03-01T02:22:45;98958.56;;;-4.59;52.89
35694;BME280;21812;55.536;37.664;2023-03-01T02:30:39;98948.75;;;-4.56;53.12
35694;BME280;21812;55.536;37.664;2023-03-01T02:33:26;98961.88;;;-4.57;53.08
35694;BME280;21812;55.536;37.664;2023-03-01T02:35:54;98951.25;;;-4.54;52.78
35694;BME280;21812;55.536;37.664;2023-03-01T02:38:22;98958.13;;;-4.53;53.05
35694;BME280;21812;55.536;37.664;2023-03-01T02:40:50;98952.03;;;-4.65;53.10
35694;BME280;21812;55.536;37.664;2023-03-01T02:43:17;98971.53;;;-4.71;53.91
35694;BME280;21812;55.536;37.664;2023-03-01T02:45:51;98964.91;;;-4.75;53.70
35694;BME280;21812;55.536;37.664;2023-03-01T02:48:18;98974.50;;;-4.75;54.36
35694;BME280;21812;55.536;37.664;2023-03-01T02:53:21;98978.19;;;-4.66;53.99
35694;BME280;21812;55.536;37.664;2023-03-01T02:55:53;98978.69;;;-4.61;54.07
35694;BME280;21812;55.536;37.664;2023-03-01T02:58:19;98965.13;;;-4.78;54.28
35694;BME280;21812;55.536;37.664;2023-03-01T03:00:46;98978.19;;;-4.66;54.37
35694;BME280;21812;55.536;37.664;2023-03-01T03:03:16;98983.28;;;-4.65;54.31
35694;BME280;21812;55.536;37.664;2023-03-01T03:05:42;98981.53;;;-4.64;54.10
35694;BME280;21812;55.536;37.664;2023-03-01T03:08:08;98964.69;;;-4.72;54.33
35694;BME280;21812;55.536;37.664;2023-03-01T03:10:40;98972.72;;;-4.75;54.65
35694;BME280;21812;55.536;37.664;2023-03-01T03:13:09;98964.53;;;-4.81;54.35
35694;BME280;21812;55.536;37.664;2023-03-01T03:15:36;98977.56;;;-4.81;54.47
35694;BME280;21812;55.536;37.664;2023-03-01T03:18:03;98977.03;;;-4.86;55.11
35694;BME280;21812;55.536;37.664;2023-03-01T03:20:29;98969.06;;;-4.96;55.31
35694;BME280;21812;55.536;37.664;2023-03-01T03:22:56;98936.06;;;-5.08;55.02
35694;BME280;21812;55.536;37.664;2023-03-01T03:25:24;98979.59;;;-4.74;55.20
35694;BME280;21812;55.536;37.664;2023-03-01T03:27:51;98982.69;;;-4.68;54.67
35694;BME280;21812;55.536;37.664;2023-03-01T03:30:27;98978.16;;;-4.78;54.89
35694;BME280;21812;55.536;37.664;2023-03-01T03:32:53;98981.91;;;-4.82;54.99
35694;BME280;21812;55.536;37.664;2023-03-01T03:35:20;98974.59;;;-4.77;55.15
35694;BME280;21812;55.536;37.664;2023-03-01T03:37:46;98973.84;;;-4.66;55.29
35694;BME280;21812;55.536;37.664;2023-03-01T03:40:40;98973.72;;;-4.64;54.81
35694;BME280;21812;55.536;37.664;2023-03-01T03:43:09;98972.97;;;-4.66;54.44
35694;BME280;21812;55.536;37.664;2023-03-01T03:45:35;98982.13;;;-4.61;54.58
35694;BME280;21812;55.536;37.664;2023-03-01T03:48:02;98992.38;;;-4.71;54.81
35694;BME280;21812;55.536;37.664;2023-03-01T03:50:29;98981.19;;;-4.84;55.45
35694;BME280;21812;55.536;37.664;2023-03-01T03:52:54;98993.81;;;-4.66;55.18
35694;BME280;21812;55.536;37.664;2023-03-01T03:55:20;98970.88;;;-4.61;54.89
35694;BME280;21812;55.536;37.664;2023-03-01T03:57:47;98991.50;;;-4.58;54.99
35694;BME280;21812;55.536;37.664;2023-03-01T04:00:20;98984.16;;;-4.64;55.10
35694;BME280;21812;55.536;37.664;2023-03-01T04:02:47;98992.69;;;-4.62;55.05
35694;BME280;21812;55.536;37.664;2023-03-01T04:05:14;98967.94;;;-4.81;54.83
35694;BME280;21812;55.536;37.664;2023-03-01T04:07:41;98987.69;;;-4.65;54.83
35694;BME280;21812;55.536;37.664;2023-03-01T04:10:10;98986.69;;;-4.76;55.61
35694;BME280;21812;55.536;37.664;2023-03-01T04:12:36;98987.84;;;-4.80;55.27
35694;BME280;21812;55.536;37.664;2023-03-01T04:15:04;98993.91;;;-4.79;55.17
35694;BME280;21812;55.536;37.664;2023-03-01T04:17:47;98995.16;;;-4.85;55.67
35694;BME280;21812;55.536;37.664;2023-03-01T04:20:18;98971.66;;;-4.96;55.51
35694;BME280;21812;55.536;37.664;2023-03-01T04:23:00;98965.94;;;-5.01;55.63
35694;BME280;21812;55.536;37.664;2023-03-01T04:25:53;99009.00;;;-4.84;55.91
35694;BME280;21812;55.536;37.664;2023-03-01T04:28:24;99009.34;;;-4.89;55.58
35694;BME280;21812;55.536;37.664;2023-03-01T04:30:51;98999.16;;;-4.92;55.92
35694;BME280;21812;55.536;37.664;2023-03-01T04:33:20;99005.47;;;-4.83;56.24
35694;BME280;21812;55.536;37.664;2023-03-01T04:35:46;99015.75;;;-4.82;55.75
35694;BME280;21812;55.536;37.664;2023-03-01T04:38:16;99011.81;;;-4.87;55.67
35694;BME280;21812;55.536;37.664;2023-03-01T04:40:41;99013.28;;;-4.83;56.02
35694;BME280;21812;55.536;37.664;2023-03-01T04:43:09;99019.88;;;-4.91;56.11
35694;BME280;21812;55.536;37.664;2023-03-01T04:45:36;99023.75;;;-4.96;55.90
35694;BME280;21812;55.536;37.664;2023-03-01T04:48:03;99017.72;;;-4.97;56.54
35694;BME280;21812;55.536;37.664;2023-03-01T04:50:29;99017.72;;;-4.97;56.35
35694;BME280;21812;55.536;37.664;2023-03-01T04:52:55;99028.50;;;-4.90;56.15
35694;BME280;21812;55.536;37.664;2023-03-01T04:55:27;99032.25;;;-4.81;56.40
35694;BME280;21812;55.536;37.664;2023-03-01T04:57:54;99024.47;;;-4.94;56.25
35694;BME280;21812;55.536;37.664;2023-03-01T05:00:20;99028.06;;;-4.84;56.11
35694;BME280;21812;55.536;37.664;2023-03-01T05:05:14;99032.78;;;-4.89;56.29
35694;BME280;21812;55.536;37.664;2023-03-01T05:07:40;99023.09;;;-4.87;56.37
35694;BME280;21812;55.536;37.664;2023-03-01T05:10:05;99022.66;;;-4.81;56.42
35694;BME280;21812;55.536;37.664;2023-03-01T05:12:31;99029.91;;;-4.73;56.11
35694;BME280;21812;55.536;37.664;2023-03-01T05:14:57;99038.25;;;-4.68;56.12
35694;BME280;21812;55.536;37.664;2023-03-01T05:17:23;99040.13;;;-4.70;56.34
35694;BME280;21812;55.536;37.664;2023-03-01T05:19:49;99041.56;;;-4.66;55.92
35694;BME280;21812;55.536;37.664;2023-03-01T05:22:15;99043.22;;;-4.65;56.11
35694;BME280;21812;55.536;37.664;2023-03-01T05:24:41;99049.50;;;-4.67;56.17
35694;BME280;21812;55.536;37.664;2023-03-01T05:27:07;99042.41;;;-4.65;56.15
35694;BME280;21812;55.536;37.664;2023-03-01T05:29:33;99035.84;;;-4.71;56.11
35694;BME280;21812;55.536;37.664;2023-03-01T05:32:01;99017.53;;;-4.82;56.41
35694;BME280;21812;55.536;37.664;2023-03-01T05:34:33;98995.81;;;-4.94;55.94
35694;BME280;21812;55.536;37.664;2023-03-01T05:36:59;99052.59;;;-4.62;56.44
35694;BME280;21812;55.536;37.664;2023-03-01T05:39:26;99052.44;;;-4.72;56.69
35694;BME280;21812;55.536;37.664;2023-03-01T05:41:54;99052.19;;;-4.69;56.84
35694;BME280;21812;55.536;37.664;2023-03-01T05:44:20;99050.31;;;-4.67;56.09
35694;BME280;21812;55.536;37.664;2023-03-01T05:46:46;99058.44;;;-4.59;56.39
35694;BME280;21812;55.536;37.664;2023-03-01T05:49:13;99066.91;;;-4.44;56.54
35694;BME280;21812;55.536;37.664;2023-03-01T05:51:40;99059.81;;;-4.42;56.27
35694;BME280;21812;55.536;37.664;2023-03-01T05:54:07;99063.94;;;-4.26;55.73
35694;BME280;21812;55.536;37.664;2023-03-01T05:56:34;99065.78;;;-4.28;55.72
35694;BME280;21812;55.536;37.664;2023-03-01T05:59:00;99069.72;;;-4.23;55.51
35694;BME280;21812;55.536;37.664;2023-03-01T06:01:26;99075.69;;;-4.09;55.68
35694;BME280;21812;55.536;37.664;2023-03-01T06:03:52;99078.31;;;-4.09;55.16
35694;BME280;21812;55.536;37.664;2023-03-01T06:06:17;99079.00;;;-4.19;55.27
35694;BME280;21812;55.536;37.664;2023-03-01T06:08:43;99071.34;;;-4.09;55.50
35694;BME280;21812;55.536;37.664;2023-03-01T06:11:09;99079.41;;;-4.01;54.87
35694;BME280;21812;55.536;37.664;2023-03-01T06:13:34;99069.66;;;-4.10;55.09
35694;BME280;21812;55.536;37.664;2023-03-01T06:16:00;99070.06;;;-4.03;55.09
35694;BME280;21812;55.536;37.664;2023-03-01T06:18:25;99083.22;;;-4.05;55.15
35694;BME280;21812;55.536;37.664;2023-03-01T06:20:55;99068.13;;;-4.13;54.98
35694;BME280;21812;55.536;37.664;2023-03-01T06:23:22;99082.69;;;-4.10;55.09
35694;BME280;21812;55.536;37.664;2023-03-01T06:25:47;99087.81;;;-4.08;55.09
35694;BME280;21812;55.536;37.664;2023-03-01T06:28:13;99086.06;;;-3.97;54.98
35694;BME280;21812;55.536;37.664;2023-03-01T06:30:38;99096.56;;;-3.85;54.52
35694;BME280;21812;55.536;37.664;2023-03-01T06:33:04;99097.25;;;-3.83;54.34
35694;BME280;21812;55.536;37.664;2023-03-01T06:35:30;99098.44;;;-3.87;54.27
35694;BME280;21812;55.536;37.664;2023-03-01T06:37:57;99105.13;;;-3.72;54.46
35694;BME280;21812;55.536;37.664;2023-03-01T06:40:23;99097.13;;;-3.58;54.00
35694;BME280;21812;55.536;37.664;2023-03-01T06:42:50;99102.47;;;-3.48;53.54
35694;BME280;21812;55.536;37.664;2023-03-01T06:45:17;99112.78;;;-3.58;53.25
35694;BME280;21812;55.536;37.664;2023-03-01T06:47:42;99093.63;;;-3.69;53.78
35694;BME280;21812;55.536;37.664;2023-03-01T06:50:08;99108.81;;;-3.75;53.89
35694;BME280;21812;55.536;37.664;2023-03-01T06:52:34;99101.00;;;-3.99;53.92
35694;BME280;21812;55.536;37.664;2023-03-01T06:55:01;99098.28;;;-3.97;54.68
35694;BME280;21812;55.536;37.664;2023-03-01T06:57:27;99097.72;;;-3.89;54.21
35694;BME280;21812;55.536;37.664;2023-03-01T06:59:52;99104.91;;;-3.69;53.91
35694;BME280;21812;55.536;37.664;2023-03-01T07:02:18;99106.34;;;-3.65;53.94
35694;BME280;21812;55.536;37.664;2023-03-01T07:04:44;99106.63;;;-3.45;53.93
35694;BME280;21812;55.536;37.664;2023-03-01T07:07:10;99103.09;;;-3.33;53.43
35694;BME280;21812;55.536;37.664;2023-03-01T07:09:36;99107.13;;;-3.18;53.05
35694;BME280;21812;55.536;37.664;2023-03-01T07:12:04;99107.59;;;-3.12;52.70
35694;BME280;21812;55.536;37.664;2023-03-01T07:14:30;99109.75;;;-3.18;53.00
35694;BME280;21812;55.536;37.664;2023-03-01T07:16:55;99106.19;;;-3.05;53.05
35694;BME280;21812;55.536;37.664;2023-03-01T07:19:21;99107.50;;;-2.77;52.87
35694;BME280;21812;55.536;37.664;2023-03-01T07:21:48;99113.31;;;-2.62;52.17
35694;BME280;21812;55.536;37.664;2023-03-01T07:24:19;99111.72;;;-2.53;51.88
35694;BME280;21812;55.536;37.664;2023-03-01T07:26:48;99121.34;;;-2.54;51.66
35694;BME280;21812;55.536;37.664;2023-03-01T07:29:14;99115.19;;;-2.42;51.69
35694;BME280;21812;55.536;37.664;2023-03-01T07:31:39;99121.22;;;-2.41;51.14
35694;BME280;21812;55.536;37.664;2023-03-01T07:34:05;99125.66;;;-2.53;51.20
35694;BME280;21812;55.536;37.664;2023-03-01T07:36:30;99123.28;;;-2.67;51.99
35694;BME280;21812;55.536;37.664;2023-03-01T07:38:56;99123.16;;;-2.77;51.95
35694;BME280;21812;55.536;37.664;2023-03-01T07:41:23;99121.63;;;-2.68;52.28
35694;BME280;21812;55.536;37.664;2023-03-01T07:43:48;99132.91;;;-2.68;52.26
35694;BME280;21812;55.536;37.664;2023-03-01T07:46:14;99126.72;;;-2.78;52.47
35694;BME280;21812;55.536;37.664;2023-03-01T07:48:40;99142.78;;;-2.71;52.83
35694;BME280;21812;55.536;37.664;2023-03-01T07:51:06;99134.53;;;-2.56;52.77
35694;BME280;21812;55.536;37.664;2023-03-01T07:53:33;99137.53;;;-2.49;52.04
35694;BME280;21812;55.536;37.664;2023-03-01T07:56:10;99072.44;;;-2.86;52.28
35694;BME280;21812;55.536;37.664;2023-03-01T07:58:38;99101.44;;;-2.78;52.38
35694;BME280;21812;55.536;37.664;2023-03-01T08:01:05;99124.94;;;-2.55;52.64
35694;BME280;21812;55.536;37.664;2023-03-01T08:03:32;99140.00;;;-2.36;52.36
35694;BME280;21812;55.536;37.664;2023-03-01T08:06:02;99117.44;;;-2.48;52.21
35694;BME280;21812;55.536;37.664;2023-03-01T08:08:28;99135.13;;;-2.52;52.17
35694;BME280;21812;55.536;37.664;2023-03-01T08:10:58;99133.34;;;-2.51;52.37
35694;BME280;21812;55.536;37.664;2023-03-01T08:13:24;99141.47;;;-2.66;52.59
35694;BME280;21812;55.536;37.664;2023-03-01T08:15:50;99137.75;;;-2.63;52.36
35694;BME280;21812;55.536;37.664;2023-03-01T08:18:17;99135.53;;;-2.68;53.15
35694;BME280;21812;55.536;37.664;2023-03-01T08:20:42;99134.44;;;-2.54;52.88
35694;BME280;21812;55.536;37.664;2023-03-01T08:23:08;99136.66;;;-2.38;52.88
35694;BME280;21812;55.536;37.664;2023-03-01T08:25:34;99142.97;;;-2.41;52.19
35694;BME280;21812;55.536;37.664;2023-03-01T08:27:59;99146.66;;;-2.43;52.68
35694;BME280;21812;55.536;37.664;2023-03-01T08:30:25;99149.88;;;-2.40;52.85
35694;BME280;21812;55.536;37.664;2023-03-01T08:32:51;99140.84;;;-2.36;52.63
35694;BME280;21812;55.536;37.664;2023-03-01T08:35:17;99148.88;;;-2.16;51.62
35694;BME280;21812;55.536;37.664;2023-03-01T08:37:43;99152.19;;;-2.14;51.83
35694;BME280;21812;55.536;37.664;2023-03-01T08:40:09;99153.59;;;-2.10;51.83
35694;BME280;21812;55.536;37.664;2023-03-01T08:42:36;99151.69;;;-2.08;51.91
35694;BME280;21812;55.536;37.664;2023-03-01T08:45:03;99149.16;;;-1.98;51.93
35694;BME280;21812;55.536;37.664;2023-03-01T08:47:29;99146.16;;;-1.82;51.37
35694;BME280;21812;55.536;37.664;2023-03-01T08:49:54;99137.16;;;-1.68;50.97
35694;BME280;21812;55.536;37.664;2023-03-01T08:52:20;99151.47;;;-1.72;50.39
35694;BME280;21812;55.536;37.664;2023-03-01T08:54:49;99158.44;;;-1.94;50.60
35694;BME280;21812;55.536;37.664;2023-03-01T08:57:14;99153.63;;;-1.78;51.22
35694;BME280;21812;55.536;37.664;2023-03-01T08:59:40;99149.16;;;-1.66;50.48
35694;BME280;21812;55.536;37.664;2023-03-01T09:02:11;99120.47;;;-1.88;50.35
35694;BME280;21812;55.536;37.664;2023-03-01T09:04:38;99156.06;;;-1.65;50.37
35694;BME280;21812;55.536;37.664;2023-03-01T09:07:03;99151.22;;;-1.69;50.10
35694;BME280;21812;55.536;37.664;2023-03-01T09:09:29;99154.34;;;-1.54;50.66
35694;BME280;21812;55.536;37.664;2023-03-01T09:11:55;99154.50;;;-1.35;50.09
35694;BME280;21812;55.536;37.664;2023-03-01T09:14:20;99161.19;;;-1.00;49.60
35694;BME280;21812;55.536;37.664;2023-03-01T09:16:48;99159.19;;;-0.87;49.04
35694;BME280;21812;55.536;37.664;2023-03-01T09:19:14;99148.78;;;-0.57;48.62
35694;BME280;21812;55.536;37.664;2023-03-01T09:21:39;99151.72;;;-0.51;47.62
35694;BME280;21812;55.536;37.664;2023-03-01T09:24:12;99149.03;;;-0.70;47.38
35694;BME280;21812;55.536;37.664;2023-03-01T09:26:38;99157.00;;;-0.82;47.78
35694;BME280;21812;55.536;37.664;2023-03-01T09:29:04;99149.59;;;-0.67;48.08
35694;BME280;21812;55.536;37.664;2023-03-01T09:31:29;99153.81;;;-0.45;47.60
35694;BME280;21812;55.536;37.664;2023-03-01T09:33:55;99148.78;;;-0.17;47.43
35694;BME280;21812;55.536;37.664;2023-03-01T09:36:23;99153.06;;;-0.16;46.63
35694;BME280;21812;55.536;37.664;2023-03-01T09:38:51;99155.00;;;-0.18;47.48
35694;BME280;21812;55.536;37.664;2023-03-01T09:44:05;99118.66;;;-0.23;46.61
35694;BME280;21812;55.536;37.664;2023-03-01T09:46:40;99125.75;;;-0.04;46.05
35694;BME280;21812;55.536;37.664;2023-03-01T09:49:27;99147.69;;;0.25;45.65
35694;BME280;21812;55.536;37.664;2023-03-01T09:54:28;99141.47;;;0.45;45.60
35694;BME280;21812;55.536;37.664;2023-03-01T09:57:06;99157.22;;;0.65;45.47
35694;BME280;21812;55.536;37.664;2023-03-01T10:05:27;99159.88;;;0.26;45.77
35694;BME280;21812;55.536;37.664;2023-03-01T10:10:57;99162.25;;;0.29;45.68
35694;BME280;21812;55.536;37.664;2023-03-01T10:13:50;99165.56;;;0.50;45.36
35694;BME280;21812;55.536;37.664;2023-03-01T10:16:25;99168.59;;;0.55;45.63
35694;BME280;21812;55.536;37.664;2023-03-01T10:18:57;99152.81;;;0.65;44.72
35694;BME280;21812;55.536;37.664;2023-03-01T10:21:26;99143.97;;;0.56;44.73
35694;BME280;21812;55.536;37.664;2023-03-01T10:23:53;99160.69;;;0.36;45.53
35694;BME280;21812;55.536;37.664;2023-03-01T10:31:29;99169.03;;;-0.29;47.12
35694;BME280;21812;55.536;37.664;2023-03-01T10:34:08;99190.28;;;-0.42;47.84
35694;BME280;21812;55.536;37.664;2023-03-01T10:36:35;99182.75;;;-0.56;48.17
35694;BME280;21812;55.536;37.664;2023-03-01T10:39:12;99125.50;;;-0.91;47.90
35694;BME280;21812;55.536;37.664;2023-03-01T10:41:58;99149.13;;;-0.82;47.73
35694;BME280;21812;55.536;37.664;2023-03-01T10:44:47;99135.75;;;-1.09;48.41
35694;BME280;21812;55.536;37.664;2023-03-01T10:47:14;99196.53;;;-0.64;48.01
35694;BME280;21812;55.536;37.664;2023-03-01T10:49:52;99173.34;;;-0.28;47.48
35694;BME280;21812;55.536;37.664;2023-03-01T10:52:21;99171.34;;;-0.45;47.34
35694;BME280;21812;55.536;37.664;2023-03-01T10:54:59;99168.03;;;-0.47;47.55
35694;BME280;21812;55.536;37.664;2023-03-01T10:57:47;99201.88;;;-0.34;47.58
35694;BME280;21812;55.536;37.664;2023-03-01T11:03:01;99196.13;;;-0.28;47.47
35694;BME280;21812;55.536;37.664;2023-03-01T11:05:28;99200.28;;;-0.16;47.02
35694;BME280;21812;55.536;37.664;2023-03-01T11:08:00;99188.97;;;-0.16;46.69
35694;BME280;21812;55.536;37.664;2023-03-01T11:10:26;99191.50;;;0.14;46.22
35694;BME280;21812;55.536;37.664;2023-03-01T11:12:53;99185.84;;;0.09;46.07
35694;BME280;21812;55.536;37.664;2023-03-01T11:15:22;99199.97;;;0.18;46.06
35694;BME280;21812;55.536;37.664;2023-03-01T11:17:49;99204.50;;;0.06;45.74
35694;BME280;21812;55.536;37.664;2023-03-01T11:20:29;99195.78;;;0.06;46.78
35694;BME280;21812;55.536;37.664;2023-03-01T11:23:13;99157.50;;;0.13;47.47
35694;BME280;21812;55.536;37.664;2023-03-01T11:25:42;99163.31;;;0.26;45.74
35694;BME280;21812;55.536;37.664;2023-03-01T11:28:16;99115.69;;;1.25;44.31
35694;BME280;21812;55.536;37.664;2023-03-01T11:31:08;99185.69;;;3.25;43.01
35694;BME280;21812;55.536;37.664;2023-03-01T11:36:40;99155.19;;;7.69;34.31
35694;BME280;21812;55.536;37.664;2023-03-01T11:45:11;99176.19;;;6.81;32.80
35694;BME280;21812;55.536;37.664;2023-03-01T11:52:58;99175.53;;;6.79;33.13
35694;BME280;21812;55.536;37.664;2023-03-01T11:58:34;99162.50;;;9.32;28.41
35694;BME280;21812;55.536;37.664;2023-03-01T12:01:30;99172.63;;;7.41;30.00
35694;BME280;21812;55.536;37.664;2023-03-01T12:06:55;99133.31;;;5.68;33.62
35694;BME280;21812;55.536;37.664;2023-03-01T12:17:49;99169.00;;;7.94;30.91
35694;BME280;21812;55.536;37.664;2023-03-01T12:20:27;99169.97;;;8.87;28.45
35694;BME280;21812;55.536;37.664;2023-03-01T12:28:35;99185.53;;;5.91;31.13
35694;BME280;21812;55.536;37.664;2023-03-01T12:37:31;99203.25;;;3.08;36.28
35694;BME280;21812;55.536;37.664;2023-03-01T12:45:31;99207.53;;;2.29;37.88
35694;BME280;21812;55.536;37.664;2023-03-01T12:50:39;99182.53;;;2.69;37.89
35694;BME280;21812;55.536;37.664;2023-03-01T12:53:35;99188.94;;;3.11;37.51
35694;BME280;21812;55.536;37.664;2023-03-01T12:56:09;99199.44;;;2.85;37.73
35694;BME280;21812;55.536;37.664;2023-03-01T13:01:31;99204.53;;;1.69;40.67
35694;BME280;21812;55.536;37.664;2023-03-01T13:11:41;99160.25;;;0.80;42.47
35694;BME280;21812;55.536;37.664;2023-03-01T13:16:54;99213.09;;;0.57;43.07
35694;BME280;21812;55.536;37.664;2023-03-01T13:19:28;99188.22;;;0.22;43.47
35694;BME280;21812;55.536;37.664;2023-03-01T13:22:29;99205.75;;;0.12;43.77
35694;BME280;21812;55.536;37.664;2023-03-01T13:25:15;99188.66;;;-0.23;44.09
35694;BME280;21812;55.536;37.664;2023-03-01T13:27:41;99211.50;;;-0.14;43.91
35694;BME280;21812;55.536;37.664;2023-03-01T13:35:56;99194.31;;;-0.37;44.35
35694;BME280;21812;55.536;37.664;2023-03-01T13:41:06;99206.09;;;-0.22;44.42
35694;BME280;21812;55.536;37.664;2023-03-01T13:43:35;99185.19;;;-0.33;44.47
35694;BME280;21812;55.536;37.664;2023-03-01T13:46:11;99192.69;;;-0.60;45.01
35694;BME280;21812;55.536;37.664;2023-03-01T13:48:40;99210.22;;;-0.60;45.15
35694;BME280;21812;55.536;37.664;2023-03-01T13:51:10;99212.69;;;-0.68;44.58
35694;BME280;21812;55.536;37.664;2023-03-01T13:53:41;99206.03;;;-0.93;44.99
35694;BME280;21812;55.536;37.664;2023-03-01T13:56:11;99184.50;;;-1.39;45.68
35694;BME280;21812;55.536;37.664;2023-03-01T14:01:38;99212.81;;;-1.33;46.78
35694;BME280;21812;55.536;37.664;2023-03-01T14:04:38;99203.19;;;-1.11;46.31
35694;BME280;21812;55.536;37.664;2023-03-01T14:07:21;99206.25;;;-1.06;46.66
35694;BME280;21812;55.536;37.664;2023-03-01T14:09:51;99208.22;;;-1.41;46.72
35694;BME280;21812;55.536;37.664;2023-03-01T14:15:32;99200.34;;;-1.62;47.26
35694;BME280;21812;55.536;37.664;2023-03-01T14:18:04;99164.56;;;-1.51;46.96
35694;BME280;21812;55.536;37.664;2023-03-01T14:20:40;99201.59;;;-1.24;46.03
35694;BME280;21812;55.536;37.664;2023-03-01T14:23:15;99196.19;;;-1.22;46.37
35694;BME280;21812;55.536;37.664;2023-03-01T14:25:51;99162.84;;;-1.41;46.40
35694;BME280;21812;55.536;37.664;2023-03-01T14:28:20;99192.81;;;-1.34;46.04
35694;BME280;21812;55.536;37.664;2023-03-01T14:30:49;99199.50;;;-1.41;45.93
35694;BME280;21812;55.536;37.664;2023-03-01T14:33:33;99187.97;;;-1.39;45.75
35694;BME280;21812;55.536;37.664;2023-03-01T14:36:02;99157.94;;;-1.55;45.94
35694;BME280;21812;55.536;37.664;2023-03-01T14:38:31;99158.75;;;-1.55;46.05
35694;BME280;21812;55.536;37.664;2023-03-01T14:40:59;99178.13;;;-1.46;45.79
35694;BME280;21812;55.536;37.664;2023-03-01T14:43:29;99190.31;;;-1.35;46.41
35694;BME280;21812;55.536;37.664;2023-03-01T14:45:55;99182.19;;;-1.53;46.07
35694;BME280;21812;55.536;37.664;2023-03-01T14:48:21;99170.75;;;-1.52;46.33
35694;BME280;21812;55.536;37.664;2023-03-01T14:50:48;99174.28;;;-1.63;46.74
35694;BME280;21812;55.536;37.664;2023-03-01T14:53:21;99182.81;;;-1.61;47.24
35694;BME280;21812;55.536;37.664;2023-03-01T14:55:51;99116.16;;;-2.10;47.52
35694;BME280;21812;55.536;37.664;2023-03-01T14:58:20;99137.28;;;-2.02;48.70
35694;BME280;21812;55.536;37.664;2023-03-01T15:01:01;99176.81;;;-1.73;48.57